createdAt,value
2019-03-23T00:01:49.588Z,9.87
2019-03-23T00:04:17.898Z,4.83
2019-03-23T00:06:46.208Z,8.40
2019-03-23T00:09:14.505Z,5.83
2019-03-23T00:11:42.838Z,8.30
2019-03-23T00:14:11.152Z,5.03
2019-03-23T00:16:39.434Z,6.97
2019-03-23T00:19:07.689Z,5.63
2019-03-23T00:21:35.964Z,5.83
2019-03-23T00:24:04.243Z,5.67
2019-03-23T00:26:32.573Z,7.10
2019-03-23T00:29:00.860Z,6.17
2019-03-23T00:31:29.102Z,8.00
2019-03-23T00:33:57.408Z,5.37
2019-03-23T00:36:25.678Z,5.40
2019-03-23T00:38:54.038Z,7.03
2019-03-23T00:41:22.285Z,5.97
2019-03-23T00:43:50.672Z,7.87
2019-03-23T00:46:18.917Z,7.40
2019-03-23T00:48:47.254Z,7.10
2019-03-23T00:51:15.502Z,8.13
2019-03-23T00:53:43.783Z,10.10
2019-03-23T00:56:12.104Z,9.27
2019-03-23T00:58:40.376Z,8.57
2019-03-23T01:01:08.664Z,9.77
2019-03-23T01:03:36.969Z,10.00
2019-03-23T01:06:05.302Z,7.73
2019-03-23T01:08:33.759Z,10.27
2019-03-23T01:11:01.997Z,8.93
2019-03-23T01:13:30.276Z,7.67
2019-03-23T01:15:58.567Z,8.80
2019-03-23T01:18:26.889Z,8.77
2019-03-23T01:20:55.186Z,7.77
2019-03-23T01:23:23.529Z,8.57
2019-03-23T01:25:51.840Z,10.07
2019-03-23T01:28:20.159Z,5.50
2019-03-23T01:30:48.442Z,8.50
2019-03-23T01:33:16.812Z,8.43
2019-03-23T01:35:45.144Z,8.50
2019-03-23T01:38:13.389Z,7.70
2019-03-23T01:40:41.651Z,8.57
2019-03-23T01:43:09.943Z,9.20
2019-03-23T01:45:38.221Z,9.60
2019-03-23T01:48:06.474Z,9.53
2019-03-23T01:50:34.749Z,13.33
2019-03-23T01:53:03.008Z,10.43
2019-03-23T01:55:31.296Z,10.50
2019-03-23T01:57:59.577Z,12.77
2019-03-23T02:00:27.848Z,9.90
2019-03-23T02:02:56.092Z,11.80
2019-03-23T02:05:24.402Z,12.77
2019-03-23T02:07:52.646Z,10.17
2019-03-23T02:10:20.996Z,10.73
2019-03-23T02:12:49.272Z,9.70
2019-03-23T02:15:17.559Z,8.50
2019-03-23T02:17:45.833Z,10.23
2019-03-23T02:20:14.347Z,9.00
2019-03-23T02:22:42.637Z,9.17
2019-03-23T02:25:10.887Z,10.07
2019-03-23T02:27:39.167Z,8.20
2019-03-23T02:30:12.210Z,8.97
2019-03-23T02:32:40.625Z,9.17
2019-03-23T02:35:09.080Z,9.00
2019-03-23T02:37:37.434Z,7.00
2019-03-23T02:40:06.921Z,8.37
2019-03-23T02:42:35.208Z,6.23
2019-03-23T02:45:05.197Z,8.00
2019-03-23T02:47:33.498Z,6.90
2019-03-23T02:50:01.816Z,6.13
2019-03-23T02:52:30.127Z,7.77
2019-03-23T02:54:58.364Z,6.27
2019-03-23T02:57:26.649Z,6.87
2019-03-23T02:59:54.904Z,7.10
2019-03-23T03:02:23.178Z,5.87
2019-03-23T03:04:51.498Z,6.10
2019-03-23T03:07:19.769Z,8.40
2019-03-23T03:09:48.123Z,7.87
2019-03-23T03:12:16.377Z,8.07
2019-03-23T03:14:44.699Z,5.40
2019-03-23T03:17:12.950Z,4.63
2019-03-23T03:19:41.236Z,7.17
2019-03-23T03:22:09.514Z,6.50
2019-03-23T03:24:37.793Z,6.03
2019-03-23T03:27:06.051Z,8.47
2019-03-23T03:29:34.332Z,6.60
2019-03-23T03:32:02.762Z,9.73
2019-03-23T03:34:31.073Z,9.77
2019-03-23T03:36:59.336Z,5.87
2019-03-23T03:39:27.629Z,6.13
2019-03-23T03:41:56.004Z,8.10
2019-03-23T03:44:24.286Z,9.10
2019-03-23T03:46:52.564Z,7.03
2019-03-23T03:49:20.858Z,5.90
2019-03-23T03:51:49.189Z,8.73
2019-03-23T03:54:17.555Z,6.67
2019-03-23T03:56:45.890Z,6.57
2019-03-23T03:59:14.164Z,7.57
2019-03-23T04:01:42.411Z,6.83
2019-03-23T04:04:10.704Z,7.20
2019-03-23T04:06:39.024Z,6.00
2019-03-23T04:09:07.282Z,8.80
2019-03-23T04:11:35.620Z,7.37
2019-03-23T04:14:03.875Z,6.07
2019-03-23T04:16:32.218Z,6.40
2019-03-23T04:19:00.473Z,6.80
2019-03-23T04:21:28.807Z,7.13
2019-03-23T04:23:57.086Z,6.93
2019-03-23T04:26:25.372Z,8.00
2019-03-23T04:28:53.648Z,7.53
2019-03-23T04:31:21.949Z,7.93
2019-03-23T04:33:50.199Z,7.63
2019-03-23T04:36:18.487Z,6.87
2019-03-23T04:38:46.739Z,7.53
2019-03-23T04:41:15.022Z,12.93
2019-03-23T04:43:43.271Z,8.43
2019-03-23T04:46:11.531Z,6.80
2019-03-23T04:48:39.791Z,6.50
2019-03-23T04:51:08.069Z,6.00
2019-03-23T04:53:36.332Z,12.43
2019-03-23T04:56:04.617Z,7.97
2019-03-23T04:58:32.933Z,8.87
2019-03-23T05:01:01.199Z,6.77
2019-03-23T05:03:29.548Z,8.47
2019-03-23T05:05:57.826Z,7.57
2019-03-23T05:08:33.198Z,8.57
2019-03-23T05:10:56.099Z,8.33
2019-03-23T05:13:24.344Z,8.13
2019-03-23T05:15:52.598Z,8.63
2019-03-23T05:18:20.888Z,9.23
2019-03-23T05:20:49.142Z,5.87
2019-03-23T05:23:17.426Z,8.50
2019-03-23T05:25:45.735Z,7.17
2019-03-23T05:28:14.046Z,8.70
2019-03-23T05:30:42.304Z,7.87
2019-03-23T05:33:10.569Z,6.33
2019-03-23T05:35:38.826Z,6.53
2019-03-23T05:38:07.123Z,7.00
2019-03-23T05:40:35.366Z,9.17
2019-03-23T05:43:03.714Z,8.13
2019-03-23T05:45:31.985Z,7.20
2019-03-23T05:48:00.253Z,5.97
2019-03-23T05:50:28.534Z,7.27
2019-03-23T05:52:56.808Z,6.57
2019-03-23T05:55:25.069Z,7.00
2019-03-23T05:57:53.357Z,7.97
2019-03-23T06:00:21.749Z,6.73
2019-03-23T06:02:50.042Z,6.80
2019-03-23T06:05:18.301Z,7.53
2019-03-23T06:07:46.539Z,5.83
2019-03-23T06:10:14.834Z,6.10
2019-03-23T06:12:43.083Z,13.17
2019-03-23T06:15:11.372Z,7.50
2019-03-23T06:17:39.633Z,5.10
2019-03-23T06:20:08.953Z,7.63
2019-03-23T06:22:37.227Z,5.23
2019-03-23T06:25:06.259Z,6.00
2019-03-23T06:27:34.504Z,6.57
2019-03-23T06:30:02.771Z,9.53
2019-03-23T06:32:31.016Z,7.77
2019-03-23T06:34:59.306Z,5.27
2019-03-23T06:37:27.562Z,8.53
2019-03-23T06:39:55.868Z,7.67
2019-03-23T06:42:24.118Z,8.63
2019-03-23T06:44:52.416Z,9.40
2019-03-23T06:47:20.677Z,8.53
2019-03-23T06:49:48.967Z,9.00
2019-03-23T06:52:17.231Z,8.83
2019-03-23T06:54:45.488Z,9.97
2019-03-23T06:57:13.771Z,8.90
2019-03-23T06:59:42.203Z,7.53
2019-03-23T07:02:10.664Z,8.03
2019-03-23T07:04:38.938Z,8.73
2019-03-23T07:07:07.201Z,7.83
2019-03-23T07:09:35.477Z,6.77
2019-03-23T07:12:03.771Z,11.07
2019-03-23T07:14:32.026Z,8.60
2019-03-23T07:17:00.297Z,7.57
2019-03-23T07:19:28.558Z,8.93
2019-03-23T07:21:56.870Z,9.50
2019-03-23T07:24:25.124Z,11.27
2019-03-23T07:26:53.401Z,9.87
2019-03-23T07:29:21.734Z,9.77
2019-03-23T07:31:50.068Z,10.73
2019-03-23T07:34:18.494Z,10.77
2019-03-23T07:36:46.834Z,9.07
2019-03-23T07:39:15.166Z,12.17
2019-03-23T07:41:43.464Z,10.97
2019-03-23T07:44:11.870Z,9.13
2019-03-23T07:46:40.214Z,11.07
2019-03-23T07:49:08.487Z,12.93
2019-03-23T07:51:36.822Z,14.13
2019-03-23T07:54:05.134Z,27.57
2019-03-23T07:56:33.419Z,38.87
2019-03-23T07:59:01.716Z,39.03
2019-03-23T08:01:30.027Z,38.57
2019-03-23T08:03:58.396Z,44.73
2019-03-23T08:06:26.681Z,46.37
2019-03-23T08:08:55.085Z,60.87
2019-03-23T08:11:23.451Z,64.10
2019-03-23T08:13:51.827Z,73.43
2019-03-23T08:16:20.076Z,79.07
2019-03-23T08:18:48.451Z,73.70
2019-03-23T08:21:16.730Z,76.60
2019-03-23T08:23:45.092Z,83.37
2019-03-23T08:26:13.351Z,85.53
2019-03-23T08:28:41.690Z,88.70
2019-03-23T08:31:10.062Z,93.83
2019-03-23T08:33:38.317Z,94.77
2019-03-23T08:36:06.652Z,90.50
2019-03-23T08:38:35.032Z,99.53
2019-03-23T08:41:03.288Z,93.80
2019-03-23T08:43:31.741Z,91.17
2019-03-23T08:46:00.051Z,93.43
2019-03-23T08:48:28.399Z,95.03
2019-03-23T08:50:56.779Z,98.10
2019-03-23T08:53:25.068Z,98.57
2019-03-23T08:55:53.387Z,110.87
2019-03-23T08:58:29.637Z,114.03
2019-03-23T09:00:58.937Z,113.10
2019-03-23T09:03:27.236Z,114.50
2019-03-23T09:05:55.598Z,105.77
2019-03-23T09:08:23.861Z,110.70
2019-03-23T09:10:52.276Z,104.63
2019-03-23T09:13:20.580Z,106.73
2019-03-23T09:15:48.893Z,110.20
2019-03-23T09:18:17.177Z,108.93
2019-03-23T09:20:45.563Z,114.13
2019-03-23T09:23:13.836Z,114.47
2019-03-23T09:25:42.152Z,117.20
2019-03-23T09:28:10.498Z,105.17
2019-03-23T09:30:38.876Z,115.67
2019-03-23T09:33:07.252Z,111.10
2019-03-23T09:35:39.496Z,118.53
2019-03-23T09:38:05.588Z,114.47
2019-03-23T09:40:33.931Z,111.23
2019-03-23T09:43:02.249Z,121.77
2019-03-23T09:45:30.622Z,124.13
2019-03-23T09:47:59.057Z,122.73
2019-03-23T09:50:27.307Z,102.07
2019-03-23T09:52:55.812Z,107.97
2019-03-23T09:55:24.180Z,126.23
2019-03-23T09:57:52.482Z,127.50
2019-03-23T10:00:20.919Z,125.60
2019-03-23T10:02:49.242Z,128.53
2019-03-23T10:05:17.533Z,132.80
2019-03-23T10:07:45.871Z,127.10
2019-03-23T10:10:21.721Z,136.97
2019-03-23T10:12:44.287Z,134.80
2019-03-23T10:15:12.542Z,126.93
2019-03-23T10:17:40.847Z,126.03
2019-03-23T10:20:09.331Z,131.03
2019-03-23T10:22:37.663Z,138.63
2019-03-23T10:25:06.383Z,129.80
2019-03-23T10:27:34.693Z,123.80
2019-03-23T10:30:03.757Z,135.30
2019-03-23T10:32:32.151Z,143.03
2019-03-23T10:35:00.469Z,135.77
2019-03-23T10:37:28.899Z,138.53
2019-03-23T10:39:57.201Z,148.53
2019-03-23T10:42:25.513Z,147.03
2019-03-23T10:44:53.890Z,147.57
2019-03-23T10:47:22.321Z,147.70
2019-03-23T10:49:50.677Z,135.47
2019-03-23T10:52:18.953Z,145.37
2019-03-23T10:54:47.307Z,137.73
2019-03-23T10:57:15.653Z,141.30
2019-03-23T10:59:43.958Z,141.47
2019-03-23T11:02:12.261Z,136.97
2019-03-23T11:04:40.556Z,141.23
2019-03-23T11:07:08.806Z,140.30
2019-03-23T11:09:37.126Z,134.37
2019-03-23T11:12:05.418Z,145.83
2019-03-23T11:14:33.714Z,149.57
2019-03-23T11:17:02.003Z,146.40
2019-03-23T11:19:30.365Z,149.10
2019-03-23T11:21:58.729Z,149.07
2019-03-23T11:24:27.116Z,160.50
2019-03-23T11:26:55.437Z,141.20
2019-03-23T11:29:23.723Z,146.77
2019-03-23T11:31:52.206Z,145.00
2019-03-23T11:34:20.470Z,150.40
2019-03-23T11:36:48.865Z,148.30
2019-03-23T11:39:17.223Z,145.13
2019-03-23T11:41:45.593Z,139.90
2019-03-23T11:44:13.875Z,150.53
2019-03-23T11:46:42.203Z,140.07
2019-03-23T11:49:10.556Z,146.87
2019-03-23T11:51:38.920Z,145.97
2019-03-23T11:54:07.277Z,151.13
2019-03-23T11:56:35.557Z,146.80
2019-03-23T11:59:03.934Z,141.60
2019-03-23T12:01:32.272Z,148.33
2019-03-23T12:04:00.731Z,133.80
2019-03-23T12:06:29.027Z,122.33
2019-03-23T12:08:57.332Z,137.77
2019-03-23T12:11:25.629Z,132.87
2019-03-23T12:13:53.928Z,129.10
2019-03-23T12:16:22.305Z,143.67
2019-03-23T12:18:50.587Z,141.17
2019-03-23T12:21:18.866Z,133.87
2019-03-23T12:23:47.237Z,147.77
2019-03-23T12:26:15.541Z,130.77
2019-03-23T12:28:43.832Z,125.57
2019-03-23T12:31:12.100Z,132.50
2019-03-23T12:33:40.423Z,134.83
2019-03-23T12:36:08.796Z,136.20
2019-03-23T12:38:37.156Z,131.70
2019-03-23T12:41:14.170Z,141.63
2019-03-23T12:43:35.448Z,123.60
2019-03-23T12:46:03.732Z,130.37
2019-03-23T12:48:32.062Z,128.53
2019-03-23T12:51:00.427Z,127.77
2019-03-23T12:53:28.759Z,133.93
2019-03-23T12:55:57.093Z,127.60
2019-03-23T12:58:25.365Z,134.90
2019-03-23T13:00:53.655Z,125.60
2019-03-23T13:03:22.107Z,123.13
2019-03-23T13:05:50.452Z,126.47
2019-03-23T13:08:18.761Z,121.53
2019-03-23T13:10:47.107Z,121.07
2019-03-23T13:13:15.379Z,117.47
2019-03-23T13:15:43.667Z,111.57
2019-03-23T13:18:11.955Z,113.43
2019-03-23T13:20:40.406Z,111.33
2019-03-23T13:23:08.677Z,110.50
2019-03-23T13:25:37.005Z,110.60
2019-03-23T13:28:05.317Z,109.10
2019-03-23T13:30:33.621Z,104.33
2019-03-23T13:33:01.881Z,101.17
2019-03-23T13:35:30.208Z,103.80
2019-03-23T13:37:58.566Z,107.23
2019-03-23T13:40:26.871Z,110.37
2019-03-23T13:42:55.698Z,98.73
2019-03-23T13:45:24.078Z,98.17
2019-03-23T13:47:52.360Z,89.03
2019-03-23T13:50:27.986Z,87.10
2019-03-23T13:52:56.312Z,86.57
2019-03-23T13:55:27.005Z,80.13
2019-03-23T13:57:55.444Z,79.23
2019-03-23T14:00:23.781Z,76.50
2019-03-23T14:02:52.096Z,76.63
2019-03-23T14:05:20.393Z,77.53
2019-03-23T14:07:48.691Z,78.00
2019-03-23T14:10:17.049Z,78.22
2019-03-23T14:12:45.333Z,76.87
2019-03-23T14:15:13.596Z,74.37
2019-03-23T14:17:41.915Z,73.40
2019-03-23T14:20:10.272Z,70.78
2019-03-23T14:22:38.612Z,70.92
2019-03-23T14:25:06.953Z,72.65
2019-03-23T14:27:35.331Z,73.10
2019-03-23T14:30:06.253Z,65.90
2019-03-23T14:32:34.548Z,65.78
2019-03-23T14:35:02.860Z,59.58
2019-03-23T14:37:31.218Z,59.60
2019-03-23T14:39:59.488Z,58.98
2019-03-23T14:42:27.851Z,53.73
2019-03-23T14:44:56.120Z,51.20
2019-03-23T14:47:24.536Z,57.25
2019-03-23T14:49:52.807Z,57.23
2019-03-23T14:52:21.086Z,48.28
2019-03-23T14:54:49.389Z,51.48
2019-03-23T14:57:17.737Z,58.38
2019-03-23T14:59:46.021Z,55.35
2019-03-23T15:02:14.349Z,52.23
2019-03-23T15:04:42.645Z,43.47
2019-03-23T15:07:10.919Z,43.20
2019-03-23T15:09:39.214Z,37.90
2019-03-23T15:12:14.716Z,41.03
2019-03-23T15:14:37.582Z,39.97
2019-03-23T15:17:05.895Z,43.67
2019-03-23T15:19:34.246Z,41.43
2019-03-23T15:22:02.505Z,45.93
2019-03-23T15:24:30.817Z,44.83
2019-03-23T15:26:59.157Z,53.17
2019-03-23T15:29:27.461Z,44.23
2019-03-23T15:31:55.793Z,47.27
2019-03-23T15:34:24.205Z,48.37
2019-03-23T15:36:52.497Z,48.13
2019-03-23T15:39:20.790Z,50.37
2019-03-23T15:41:49.082Z,43.27
2019-03-23T15:44:17.366Z,45.73
2019-03-23T15:46:45.668Z,37.77
2019-03-23T15:49:14.017Z,42.30
2019-03-23T15:51:42.312Z,38.90
2019-03-23T15:54:10.584Z,36.03
2019-03-23T15:56:38.882Z,35.90
2019-03-23T15:59:07.171Z,36.07
2019-03-23T16:01:35.478Z,34.87
2019-03-23T16:04:03.752Z,36.70
2019-03-23T16:06:32.056Z,41.27
2019-03-23T16:09:00.351Z,36.90
2019-03-23T16:11:28.665Z,41.30
2019-03-23T16:13:57.026Z,37.93
2019-03-23T16:16:25.453Z,37.23
2019-03-23T16:18:53.797Z,36.47
2019-03-23T16:21:22.127Z,38.30
2019-03-23T16:23:50.376Z,42.50
2019-03-23T16:26:18.787Z,41.27
2019-03-23T16:28:47.077Z,39.87
2019-03-23T16:31:15.401Z,44.73
2019-03-23T16:33:43.763Z,42.37
2019-03-23T16:36:12.040Z,41.00
2019-03-23T16:38:40.467Z,45.30
2019-03-23T16:41:08.747Z,45.70
2019-03-23T16:43:37.060Z,49.07
2019-03-23T16:46:05.367Z,46.17
2019-03-23T16:48:33.720Z,45.50
2019-03-23T16:51:01.986Z,46.97
2019-03-23T16:53:30.296Z,43.40
2019-03-23T16:55:58.564Z,49.73
2019-03-23T16:58:26.923Z,47.93
2019-03-23T17:00:55.300Z,53.00
2019-03-23T17:03:23.706Z,51.20
2019-03-23T17:05:51.991Z,47.70
2019-03-23T17:08:20.277Z,47.43
2019-03-23T17:10:48.546Z,46.77
2019-03-23T17:13:16.913Z,51.53
2019-03-23T17:15:45.196Z,52.70
2019-03-23T17:18:13.547Z,48.23
2019-03-23T17:20:41.847Z,50.17
2019-03-23T17:23:10.305Z,52.83
2019-03-23T17:25:38.597Z,53.43
2019-03-23T17:28:06.958Z,58.20
2019-03-23T17:30:35.267Z,59.77
2019-03-23T17:33:03.557Z,57.87
2019-03-23T17:35:31.941Z,56.43
2019-03-23T17:38:00.213Z,51.93
2019-03-23T17:40:28.585Z,62.07
2019-03-23T17:43:05.554Z,54.60
2019-03-23T17:45:26.881Z,56.30
2019-03-23T17:47:55.172Z,61.70
2019-03-23T17:50:23.567Z,57.10
2019-03-23T17:52:51.920Z,61.83
2019-03-23T17:55:20.210Z,60.20
2019-03-23T17:57:48.481Z,62.13
2019-03-23T18:00:17.095Z,64.73
2019-03-23T18:02:45.362Z,62.70
2019-03-23T18:05:13.725Z,62.87
2019-03-23T18:07:42.004Z,62.50
2019-03-23T18:10:10.304Z,62.73
2019-03-23T18:12:38.652Z,62.50
2019-03-23T18:15:10.117Z,61.23
2019-03-23T18:17:38.417Z,62.13
2019-03-23T18:20:06.915Z,66.37
2019-03-23T18:22:35.256Z,65.73
2019-03-23T18:25:04.497Z,66.50
2019-03-23T18:27:32.795Z,59.60
2019-03-23T18:30:01.068Z,59.57
2019-03-23T18:32:29.391Z,60.53
2019-03-23T18:34:57.789Z,62.73
2019-03-23T18:37:26.167Z,63.70
2019-03-23T18:39:54.517Z,61.20
2019-03-23T18:42:22.897Z,63.40
2019-03-23T18:44:51.247Z,62.47
2019-03-23T18:47:19.648Z,64.77
2019-03-23T18:49:47.983Z,66.03
2019-03-23T18:52:16.276Z,64.30
2019-03-23T18:54:44.559Z,65.57
2019-03-23T18:57:12.863Z,66.70
2019-03-23T18:59:41.135Z,63.47
2019-03-23T19:02:09.518Z,64.17
2019-03-23T19:04:37.821Z,65.27
2019-03-23T19:07:06.193Z,62.87
2019-03-23T19:09:34.502Z,63.90
2019-03-23T19:12:02.809Z,57.03
2019-03-23T19:14:31.176Z,60.60
2019-03-23T19:16:59.671Z,61.70
2019-03-23T19:19:27.915Z,62.93
2019-03-23T19:21:56.195Z,61.37
2019-03-23T19:24:24.577Z,63.10
2019-03-23T19:26:52.851Z,59.13
2019-03-23T19:29:21.171Z,64.20
2019-03-23T19:31:49.465Z,73.13
2019-03-23T19:34:17.787Z,71.83
2019-03-23T19:36:46.061Z,70.23
2019-03-23T19:39:14.366Z,70.13
2019-03-23T19:41:42.730Z,73.13
2019-03-23T19:44:11.079Z,62.77
2019-03-23T19:46:39.358Z,66.20
2019-03-23T19:49:07.651Z,65.87
2019-03-23T19:51:36.015Z,60.50
2019-03-23T19:54:04.336Z,65.03
2019-03-23T19:56:32.610Z,59.83
2019-03-23T19:59:00.921Z,67.67
2019-03-23T20:01:29.250Z,67.90
2019-03-23T20:03:57.588Z,71.03
2019-03-23T20:06:26.774Z,66.33
2019-03-23T20:08:55.136Z,70.67
2019-03-23T20:11:23.466Z,64.57
2019-03-23T20:13:58.688Z,61.07
2019-03-23T20:16:21.860Z,65.33
2019-03-23T20:18:50.224Z,64.90
2019-03-23T20:21:18.599Z,61.80
2019-03-23T20:23:46.946Z,60.33
2019-03-23T20:26:15.256Z,61.30
2019-03-23T20:28:43.533Z,65.37
2019-03-23T20:31:11.906Z,62.83
2019-03-23T20:33:40.167Z,65.03
2019-03-23T20:36:08.502Z,60.87
2019-03-23T20:38:36.841Z,60.67
2019-03-23T20:41:05.139Z,64.57
2019-03-23T20:43:33.475Z,60.67
2019-03-23T20:46:01.775Z,66.93
2019-03-23T20:48:30.176Z,63.30
2019-03-23T20:50:58.560Z,62.97
2019-03-23T20:53:26.919Z,62.83
2019-03-23T20:55:55.285Z,61.03
2019-03-23T20:58:23.585Z,60.13
2019-03-23T21:00:51.859Z,61.67
2019-03-23T21:03:20.278Z,63.07
2019-03-23T21:05:48.530Z,65.17
2019-03-23T21:08:16.895Z,67.43
2019-03-23T21:10:45.269Z,63.93
2019-03-23T21:13:13.640Z,66.93
2019-03-23T21:15:42.025Z,62.40
2019-03-23T21:18:10.392Z,63.03
2019-03-23T21:20:38.652Z,64.00
2019-03-23T21:23:06.962Z,60.77
2019-03-23T21:25:35.260Z,61.90
2019-03-23T21:28:03.633Z,67.53
2019-03-23T21:30:32.380Z,67.07
2019-03-23T21:33:00.714Z,58.27
2019-03-23T21:35:29.012Z,65.87
2019-03-23T21:37:57.329Z,64.00
2019-03-23T21:40:25.615Z,59.87
2019-03-23T21:42:54.008Z,60.37
2019-03-23T21:45:22.327Z,64.07
2019-03-23T21:47:50.821Z,62.53
2019-03-23T21:50:19.113Z,64.37
2019-03-23T21:52:47.432Z,66.93
2019-03-23T21:55:15.775Z,67.03
2019-03-23T21:57:44.088Z,74.63
2019-03-23T22:00:12.505Z,69.20
2019-03-23T22:02:40.869Z,73.30
2019-03-23T22:05:09.466Z,72.27
2019-03-23T22:07:37.774Z,70.70
2019-03-23T22:10:07.221Z,70.33
2019-03-23T22:12:35.815Z,64.80
2019-03-23T22:15:06.336Z,62.20
2019-03-23T22:17:34.780Z,59.60
2019-03-23T22:20:04.374Z,61.63
2019-03-23T22:22:32.643Z,67.27
2019-03-23T22:25:00.941Z,64.13
2019-03-23T22:27:29.206Z,65.20
2019-03-23T22:29:57.532Z,65.80
2019-03-23T22:32:25.921Z,64.40
2019-03-23T22:34:54.307Z,69.70
2019-03-23T22:37:22.635Z,72.50
2019-03-23T22:39:50.925Z,62.30
2019-03-23T22:42:19.248Z,64.13
2019-03-23T22:44:52.565Z,70.30
2019-03-23T22:47:17.614Z,73.20
2019-03-23T22:49:45.937Z,81.90
2019-03-23T22:52:14.206Z,87.53
2019-03-23T22:54:42.499Z,91.03
2019-03-23T22:57:10.794Z,95.47
2019-03-23T22:59:39.094Z,94.83
2019-03-23T23:02:07.429Z,106.70
2019-03-23T23:04:35.842Z,109.73
2019-03-23T23:07:04.211Z,106.57
2019-03-23T23:09:32.479Z,105.83
2019-03-23T23:12:00.829Z,109.50
2019-03-23T23:14:29.157Z,112.60
2019-03-23T23:16:57.530Z,108.93
2019-03-23T23:19:25.892Z,116.20
2019-03-23T23:21:54.189Z,110.93
2019-03-23T23:24:22.576Z,109.73
2019-03-23T23:26:50.934Z,113.23
2019-03-23T23:29:19.240Z,110.80
2019-03-23T23:31:47.610Z,114.27
2019-03-23T23:34:15.875Z,110.23
2019-03-23T23:36:44.178Z,109.77
2019-03-23T23:39:12.454Z,122.37
2019-03-23T23:41:40.794Z,121.00
2019-03-23T23:44:09.124Z,118.93
2019-03-23T23:46:37.444Z,115.83
2019-03-23T23:49:05.739Z,129.93
2019-03-23T23:51:34.046Z,122.30
2019-03-23T23:54:02.332Z,122.17
2019-03-23T23:56:30.653Z,133.87
2019-03-23T23:58:59.006Z,134.40
